createdAt,value
2023-03-31T00:02:13.332Z,97351.63
2023-03-31T00:04:52.785Z,97341.94
2023-03-31T00:07:27.122Z,97335.53
2023-03-31T00:10:16.595Z,97335.09
2023-03-31T00:12:51.282Z,97334.59
2023-03-31T00:15:24.380Z,97329.03
2023-03-31T00:18:00.579Z,97320.72
2023-03-31T00:20:37.955Z,97319.28
2023-03-31T00:23:14.630Z,97317.13
2023-03-31T00:25:49.029Z,97306.31
2023-03-31T00:28:22.396Z,97301.75
2023-03-31T00:31:01.555Z,97305.72
2023-03-31T00:33:34.711Z,97306.47
2023-03-31T00:36:10.000Z,97299.66
2023-03-31T00:38:46.158Z,97290.78
2023-03-31T00:41:20.605Z,97290.19
2023-03-31T00:44:10.641Z,97276.13
2023-03-31T00:46:51.064Z,97271.84
2023-03-31T00:49:31.146Z,97271.03
2023-03-31T00:52:08.948Z,97267.09
2023-03-31T00:54:43.803Z,97259.44
2023-03-31T00:57:18.575Z,97254.19
2023-03-31T00:59:56.013Z,97264.25
2023-03-31T01:02:29.794Z,97254.16
2023-03-31T01:05:03.158Z,97255.91
2023-03-31T01:07:42.385Z,97246.97
2023-03-31T01:10:15.515Z,97248.09
2023-03-31T01:12:52.966Z,97242.56
2023-03-31T01:15:26.193Z,97250.13
2023-03-31T01:18:00.579Z,97236.84
2023-03-31T01:20:57.983Z,97238.78
2023-03-31T01:23:59.360Z,97234.13
2023-03-31T01:26:55.550Z,97227.56
2023-03-31T01:29:57.098Z,97219.44
2023-03-31T01:33:04.207Z,97221.94
2023-03-31T01:36:14.998Z,97215.09
2023-03-31T01:39:23.188Z,97212.50
2023-03-31T01:42:04.150Z,97200.28
2023-03-31T01:44:46.327Z,97185.09
2023-03-31T01:47:29.177Z,97196.00
2023-03-31T01:50:08.088Z,97194.00
2023-03-31T01:52:48.794Z,97186.97
2023-03-31T01:55:27.366Z,97184.44
2023-03-31T01:58:08.280Z,97168.44
2023-03-31T02:00:47.073Z,97179.59
2023-03-31T02:03:26.635Z,97183.31
2023-03-31T02:06:08.707Z,97186.22
2023-03-31T02:08:45.949Z,97169.16
2023-03-31T02:11:19.533Z,97165.22
2023-03-31T02:13:56.605Z,97173.28
2023-03-31T02:16:34.134Z,97175.16
2023-03-31T02:19:08.379Z,97174.00
2023-03-31T02:21:42.498Z,97175.91
2023-03-31T02:24:17.277Z,97178.16
2023-03-31T02:26:55.978Z,97179.03
2023-03-31T02:29:30.791Z,97176.91
2023-03-31T02:32:12.996Z,97181.16
2023-03-31T02:34:46.148Z,97158.94
2023-03-31T02:37:19.454Z,97158.72
2023-03-31T02:39:54.860Z,97158.25
2023-03-31T02:42:28.378Z,97157.59
2023-03-31T02:45:06.251Z,97156.34
2023-03-31T02:47:39.369Z,97150.59
2023-03-31T02:50:12.522Z,97141.47
2023-03-31T02:52:58.504Z,97135.88
2023-03-31T02:55:48.886Z,97133.22
2023-03-31T02:58:42.181Z,97127.50
2023-03-31T03:01:40.348Z,97124.59
2023-03-31T03:04:37.147Z,97094.56
2023-03-31T03:11:22.868Z,97060.47
2023-03-31T03:14:07.556Z,97054.78
2023-03-31T03:16:46.630Z,97050.56
2023-03-31T03:19:22.812Z,97043.72
2023-03-31T03:21:55.969Z,97034.81
2023-03-31T03:24:29.706Z,97025.44
2023-03-31T03:27:03.182Z,97022.88
2023-03-31T03:29:36.166Z,97009.16
2023-03-31T03:32:12.166Z,96991.22
2023-03-31T03:34:45.244Z,96985.38
2023-03-31T03:37:18.203Z,96974.31
2023-03-31T03:39:51.294Z,96954.91
2023-03-31T03:42:24.272Z,96954.03
2023-03-31T03:44:57.274Z,96961.78
2023-03-31T03:47:31.643Z,96962.56
2023-03-31T03:50:05.828Z,96960.00
2023-03-31T03:52:39.156Z,96946.47
2023-03-31T03:55:13.900Z,96942.97
2023-03-31T03:57:47.008Z,96932.47
2023-03-31T04:00:20.885Z,96927.50
2023-03-31T04:02:55.326Z,96922.28
2023-03-31T04:05:28.344Z,96916.00
2023-03-31T04:08:01.450Z,96915.41
2023-03-31T04:10:34.574Z,96912.06
2023-03-31T04:13:07.679Z,96901.88
2023-03-31T04:15:40.723Z,96904.34
2023-03-31T04:18:18.579Z,96895.91
2023-03-31T04:20:54.819Z,96889.44
2023-03-31T04:23:27.901Z,96886.09
2023-03-31T04:26:02.783Z,96876.88
2023-03-31T04:28:36.020Z,96869.19
2023-03-31T04:31:10.488Z,96864.81
2023-03-31T04:33:46.162Z,96861.56
2023-03-31T04:36:19.254Z,96838.59
2023-03-31T04:38:54.797Z,96825.94
2023-03-31T04:41:28.540Z,96819.34
2023-03-31T04:44:01.572Z,96824.50
2023-03-31T04:46:34.956Z,96813.44
2023-03-31T04:49:09.338Z,96810.56
2023-03-31T04:51:42.444Z,96817.00
2023-03-31T04:54:15.496Z,96820.31
2023-03-31T04:56:48.652Z,96820.31
2023-03-31T04:59:21.696Z,96820.91
2023-03-31T05:01:54.687Z,96817.38
2023-03-31T05:04:29.062Z,96808.38
2023-03-31T05:07:02.320Z,96808.38
2023-03-31T05:09:35.564Z,96794.81
2023-03-31T05:12:08.969Z,96780.94
2023-03-31T05:14:42.016Z,96790.28
2023-03-31T05:17:15.026Z,96788.75
2023-03-31T05:19:50.131Z,96790.00
2023-03-31T05:22:23.190Z,96799.28
2023-03-31T05:24:56.311Z,96786.66
2023-03-31T05:27:29.415Z,96784.22
2023-03-31T05:30:03.189Z,96789.06
2023-03-31T05:32:36.341Z,96790.53
2023-03-31T05:35:12.208Z,96776.22
2023-03-31T05:37:45.284Z,96793.41
2023-03-31T05:40:18.486Z,96802.88
2023-03-31T05:42:51.465Z,96822.09
2023-03-31T05:45:24.548Z,96830.53
2023-03-31T05:47:57.741Z,96833.06
2023-03-31T05:50:32.145Z,96848.47
2023-03-31T05:53:05.465Z,96843.28
2023-03-31T05:55:38.645Z,96845.78
2023-03-31T05:58:11.699Z,96828.66
2023-03-31T06:00:45.126Z,96826.63
2023-03-31T06:03:18.149Z,96825.84
2023-03-31T06:05:55.710Z,96813.22
2023-03-31T06:08:28.777Z,96803.75
2023-03-31T06:11:02.151Z,96807.03
2023-03-31T06:13:35.752Z,96800.97
2023-03-31T06:16:11.533Z,96783.09
2023-03-31T06:18:44.892Z,96774.84
2023-03-31T06:21:20.741Z,96766.13
2023-03-31T06:23:55.991Z,96758.41
2023-03-31T06:26:29.532Z,96743.69
2023-03-31T06:29:02.572Z,96747.41
2023-03-31T06:31:36.373Z,96747.13
2023-03-31T06:34:09.409Z,96750.59
2023-03-31T06:36:43.776Z,96738.41
2023-03-31T06:39:16.915Z,96727.00
2023-03-31T06:41:49.925Z,96711.50
2023-03-31T06:44:24.555Z,96705.88
2023-03-31T06:46:57.578Z,96692.41
2023-03-31T06:49:30.634Z,96692.19
2023-03-31T06:52:05.547Z,96693.31
2023-03-31T06:54:38.507Z,96696.94
2023-03-31T06:57:11.566Z,96686.94
2023-03-31T06:59:44.636Z,96690.63
2023-03-31T07:02:17.912Z,96691.75
2023-03-31T07:04:50.896Z,96712.16
2023-03-31T07:07:25.500Z,96719.78
2023-03-31T07:09:58.523Z,96727.69
2023-03-31T07:12:34.742Z,96755.09
2023-03-31T07:15:09.467Z,96767.16
2023-03-31T07:17:42.987Z,96780.00
2023-03-31T07:20:17.553Z,96792.56
2023-03-31T07:22:51.896Z,96806.25
2023-03-31T07:25:25.068Z,96811.09
2023-03-31T07:27:58.109Z,96806.78
2023-03-31T07:30:31.051Z,96829.75
2023-03-31T07:33:04.345Z,96805.16
2023-03-31T07:35:40.109Z,96769.81
2023-03-31T07:38:14.954Z,96738.13
2023-03-31T07:40:55.787Z,96751.56
2023-03-31T07:43:35.031Z,96720.09
2023-03-31T07:46:08.975Z,96664.91
2023-03-31T07:48:42.151Z,96675.97
2023-03-31T07:51:16.802Z,96682.31
2023-03-31T07:53:52.606Z,96700.72
2023-03-31T07:56:27.024Z,96706.88
2023-03-31T07:59:00.018Z,96720.41
2023-03-31T08:01:33.085Z,96712.09
2023-03-31T08:04:06.363Z,96717.69
2023-03-31T08:06:39.978Z,96681.81
2023-03-31T08:09:14.374Z,96683.78
2023-03-31T08:11:48.149Z,96679.78
2023-03-31T08:14:30.299Z,96683.22
2023-03-31T08:17:04.096Z,96684.13
2023-03-31T08:19:37.439Z,96678.22
2023-03-31T08:22:10.539Z,96676.06
2023-03-31T08:24:44.917Z,96660.88
2023-03-31T08:27:18.680Z,96659.50
2023-03-31T08:29:51.710Z,96654.44
2023-03-31T08:32:25.097Z,96656.78
2023-03-31T08:34:58.183Z,96669.94
2023-03-31T08:37:31.530Z,96654.59
2023-03-31T08:40:09.704Z,96662.88
2023-03-31T08:42:47.525Z,96661.47
2023-03-31T08:45:25.757Z,96653.78
2023-03-31T08:48:07.433Z,96661.38
2023-03-31T08:50:48.730Z,96653.00
2023-03-31T08:53:27.658Z,96650.28
2023-03-31T08:56:02.166Z,96653.25
2023-03-31T08:58:41.652Z,96659.75
2023-03-31T09:01:25.574Z,96647.31
2023-03-31T09:04:21.697Z,96642.75
2023-03-31T09:07:02.563Z,96644.13
2023-03-31T09:09:48.014Z,96641.28
2023-03-31T09:12:27.481Z,96636.44
2023-03-31T09:15:02.655Z,96635.94
2023-03-31T09:17:42.947Z,96640.63
2023-03-31T09:20:21.981Z,96637.47
2023-03-31T09:23:02.816Z,96630.00
2023-03-31T09:25:41.372Z,96619.06
2023-03-31T09:28:22.394Z,96611.50
2023-03-31T09:30:56.706Z,96614.13
2023-03-31T09:33:32.771Z,96602.31
2023-03-31T09:36:15.938Z,96596.31
2023-03-31T09:38:49.421Z,96587.84
2023-03-31T09:41:22.508Z,96590.66
2023-03-31T09:43:56.883Z,96584.66
2023-03-31T09:46:35.046Z,96576.94
2023-03-31T09:49:15.236Z,96570.06
2023-03-31T09:51:54.822Z,96581.44
2023-03-31T09:54:37.006Z,96580.69
2023-03-31T09:57:25.620Z,96574.63
2023-03-31T10:00:16.603Z,96563.31
2023-03-31T10:02:51.861Z,96579.50
2023-03-31T10:05:31.547Z,96562.25
2023-03-31T10:08:25.752Z,96548.56
2023-03-31T10:11:09.935Z,96552.28
2023-03-31T10:13:48.312Z,96563.09
2023-03-31T10:16:32.584Z,96564.59
2023-03-31T10:19:21.324Z,96565.50
2023-03-31T10:22:00.741Z,96566.13
2023-03-31T10:24:41.973Z,96560.13
2023-03-31T10:27:22.821Z,96541.78
2023-03-31T10:29:57.671Z,96533.47
2023-03-31T10:32:33.933Z,96543.16
2023-03-31T10:35:12.746Z,96543.25
2023-03-31T10:37:45.872Z,96536.66
2023-03-31T10:40:24.514Z,96536.84
2023-03-31T10:43:06.244Z,96526.72
2023-03-31T10:45:44.379Z,96516.72
2023-03-31T10:48:27.604Z,96523.59
2023-03-31T10:51:06.410Z,96510.72
2023-03-31T10:53:45.314Z,96496.03
2023-03-31T10:56:39.776Z,96497.06
2023-03-31T10:59:33.833Z,96475.91
2023-03-31T11:02:36.630Z,96496.53
2023-03-31T11:05:17.038Z,96481.97
2023-03-31T11:08:05.596Z,96482.81
2023-03-31T11:10:59.756Z,96477.84
2023-03-31T11:13:39.821Z,96461.50
2023-03-31T11:16:23.750Z,96463.88
2023-03-31T11:19:09.830Z,96452.75
2023-03-31T11:21:57.362Z,96453.84
2023-03-31T11:25:05.842Z,96445.31
2023-03-31T11:28:20.245Z,96427.19
2023-03-31T11:31:00.011Z,96446.84
2023-03-31T11:33:51.697Z,96445.97
2023-03-31T11:36:44.501Z,96429.34
2023-03-31T11:39:38.223Z,96429.22
2023-03-31T11:42:17.741Z,96454.72
2023-03-31T11:44:56.122Z,96546.28
2023-03-31T11:47:34.273Z,96601.75
2023-03-31T11:50:13.897Z,96670.28
2023-03-31T11:52:56.154Z,96658.03
2023-03-31T11:55:32.434Z,96659.84
2023-03-31T11:58:09.365Z,96659.38
2023-03-31T12:00:45.799Z,96636.41
2023-03-31T12:03:24.992Z,96659.25
2023-03-31T12:06:03.517Z,96680.19
2023-03-31T12:08:42.664Z,96678.09
2023-03-31T12:11:23.662Z,96686.94
2023-03-31T12:14:09.431Z,96677.41
2023-03-31T12:16:46.270Z,96677.00
2023-03-31T12:19:27.629Z,96658.50
2023-03-31T12:22:11.415Z,96658.84
2023-03-31T12:24:44.460Z,96654.28
2023-03-31T12:27:24.015Z,96642.69
2023-03-31T12:30:00.049Z,96630.97
2023-03-31T12:32:37.618Z,96599.63
2023-03-31T12:35:19.348Z,96601.28
2023-03-31T12:38:15.194Z,96583.19
2023-03-31T12:41:01.174Z,96593.09
2023-03-31T12:44:11.985Z,96582.41
2023-03-31T12:47:18.521Z,96571.63
2023-03-31T12:50:10.424Z,96558.88
2023-03-31T12:52:50.617Z,96550.56
2023-03-31T12:55:38.192Z,96533.56
2023-03-31T12:58:46.913Z,96522.16
2023-03-31T13:01:21.522Z,96503.50
2023-03-31T13:04:17.536Z,96513.94
2023-03-31T13:06:57.067Z,96501.19
2023-03-31T13:09:52.157Z,96512.53
2023-03-31T13:12:28.134Z,96504.47
2023-03-31T13:15:06.590Z,96489.50
2023-03-31T13:17:41.309Z,96493.22
2023-03-31T13:20:31.495Z,96500.81
2023-03-31T13:23:19.503Z,96489.97
2023-03-31T13:25:53.705Z,96469.00
2023-03-31T13:28:42.288Z,96469.31
2023-03-31T13:31:17.346Z,96457.56
2023-03-31T13:33:57.854Z,96467.03
2023-03-31T13:37:03.339Z,96472.88
2023-03-31T13:40:22.127Z,96474.22
2023-03-31T13:43:24.343Z,96464.69
2023-03-31T13:46:23.821Z,96491.38
2023-03-31T13:49:06.421Z,96490.31
2023-03-31T13:51:54.009Z,96497.75
2023-03-31T13:55:24.085Z,96515.69
2023-03-31T13:58:34.645Z,96498.03
2023-03-31T14:01:28.584Z,96505.13
2023-03-31T14:04:22.084Z,96508.97
2023-03-31T14:06:59.282Z,96525.75
2023-03-31T14:09:42.390Z,96547.50
2023-03-31T14:12:31.939Z,96554.84
2023-03-31T14:15:07.972Z,96550.41
2023-03-31T14:17:43.856Z,96552.16
2023-03-31T14:20:43.562Z,96550.69
2023-03-31T14:23:31.190Z,96533.00
2023-03-31T14:26:08.897Z,96521.44
2023-03-31T14:28:58.246Z,96518.44
2023-03-31T14:31:36.539Z,96529.63
2023-03-31T14:34:28.746Z,96523.44
2023-03-31T14:37:04.415Z,96523.06
2023-03-31T14:39:42.649Z,96518.16
2023-03-31T14:42:17.709Z,96504.47
2023-03-31T14:44:56.881Z,96507.41
2023-03-31T14:47:31.131Z,96503.50
2023-03-31T14:50:14.927Z,96505.06
2023-03-31T14:52:49.936Z,96506.22
2023-03-31T14:55:31.786Z,96497.34
2023-03-31T14:58:14.860Z,96488.66
2023-03-31T15:00:48.741Z,96500.53
2023-03-31T15:03:22.070Z,96509.81
2023-03-31T15:06:00.655Z,96508.53
2023-03-31T15:08:36.779Z,96507.09
2023-03-31T15:11:17.196Z,96501.28
2023-03-31T15:16:38.940Z,96490.47
2023-03-31T15:19:18.138Z,96473.97
2023-03-31T15:22:01.736Z,96472.22
2023-03-31T15:24:35.141Z,96456.41
2023-03-31T15:27:20.337Z,96438.72
2023-03-31T15:29:57.210Z,96438.09
2023-03-31T15:32:33.108Z,96415.97
2023-03-31T15:38:06.680Z,96423.72
2023-03-31T15:40:43.058Z,96424.72
2023-03-31T15:43:25.872Z,96432.53
2023-03-31T15:46:00.461Z,96446.09
2023-03-31T15:48:37.160Z,96440.97
2023-03-31T15:51:23.593Z,96455.78
2023-03-31T15:53:58.073Z,96448.88
2023-03-31T15:56:35.865Z,96459.03
2023-03-31T15:59:27.583Z,96468.50
2023-03-31T16:02:05.202Z,96458.69
2023-03-31T16:04:38.291Z,96461.06
2023-03-31T16:07:18.173Z,96453.44
2023-03-31T16:09:56.802Z,96460.44
2023-03-31T16:12:33.251Z,96467.06
2023-03-31T16:15:13.220Z,96459.72
2023-03-31T16:17:51.365Z,96469.19
2023-03-31T16:20:27.989Z,96461.38
2023-03-31T16:23:01.881Z,96456.00
2023-03-31T16:25:41.662Z,96462.81
2023-03-31T16:28:18.189Z,96464.00
2023-03-31T16:30:51.275Z,96460.50
2023-03-31T16:33:25.377Z,96473.97
2023-03-31T16:35:59.260Z,96470.50
2023-03-31T16:38:32.376Z,96473.19
2023-03-31T16:41:07.611Z,96491.16
2023-03-31T16:43:40.801Z,96483.91
2023-03-31T16:46:14.213Z,96484.22
2023-03-31T16:48:47.465Z,96484.00
2023-03-31T16:51:21.143Z,96481.28
2023-03-31T16:53:54.668Z,96486.47
2023-03-31T16:56:30.446Z,96481.22
2023-03-31T16:59:03.717Z,96482.34
2023-03-31T17:01:37.176Z,96484.69
2023-03-31T17:04:10.246Z,96490.69
2023-03-31T17:06:43.466Z,96486.03
2023-03-31T17:09:16.518Z,96475.69
2023-03-31T17:11:50.973Z,96469.94
2023-03-31T17:14:24.665Z,96479.19
2023-03-31T17:16:57.804Z,96482.06
2023-03-31T17:19:31.547Z,96482.84
2023-03-31T17:22:04.543Z,96480.34
2023-03-31T17:24:37.689Z,96491.94
2023-03-31T17:27:13.539Z,96491.34
2023-03-31T17:29:46.537Z,96486.09
2023-03-31T17:32:20.064Z,96492.03
2023-03-31T17:34:53.330Z,96489.22
2023-03-31T17:37:27.224Z,96486.66
2023-03-31T17:40:00.387Z,96500.41
2023-03-31T17:42:34.744Z,96497.88
2023-03-31T17:45:10.374Z,96502.09
2023-03-31T17:47:45.121Z,96500.91
2023-03-31T17:50:19.587Z,96507.38
2023-03-31T17:52:52.688Z,96515.03
2023-03-31T17:55:27.086Z,96510.63
2023-03-31T17:58:01.491Z,96506.25
2023-03-31T18:00:34.442Z,96504.72
2023-03-31T18:03:07.383Z,96515.75
2023-03-31T18:05:41.160Z,96517.44
2023-03-31T18:08:14.159Z,96515.97
2023-03-31T18:10:47.148Z,96513.19
2023-03-31T18:13:21.675Z,96519.72
2023-03-31T18:15:54.677Z,96523.28
2023-03-31T18:18:29.009Z,96515.75
2023-03-31T18:21:04.515Z,96534.22
2023-03-31T18:23:38.511Z,96555.88
2023-03-31T18:26:14.166Z,96559.09
2023-03-31T18:28:48.460Z,96569.78
2023-03-31T18:31:22.471Z,96569.63
2023-03-31T18:33:55.770Z,96573.06
2023-03-31T18:36:29.732Z,96578.56
2023-03-31T18:39:04.000Z,96594.25
2023-03-31T18:41:37.214Z,96597.34
2023-03-31T18:44:13.622Z,96587.84
2023-03-31T18:46:46.942Z,96583.84
2023-03-31T18:49:20.727Z,96585.00
2023-03-31T18:51:53.870Z,96581.81
2023-03-31T18:54:26.828Z,96588.53
2023-03-31T18:57:00.814Z,96587.09
2023-03-31T18:59:35.143Z,96585.75
2023-03-31T19:02:08.269Z,96581.41
2023-03-31T19:04:41.587Z,96583.88
2023-03-31T19:07:14.845Z,96576.31
2023-03-31T19:09:47.896Z,96582.28
2023-03-31T19:12:22.314Z,96587.00
2023-03-31T19:14:56.583Z,96579.28
2023-03-31T19:17:29.635Z,96584.13
2023-03-31T19:20:02.952Z,96581.38
2023-03-31T19:22:36.072Z,96579.84
2023-03-31T19:25:09.580Z,96578.78
2023-03-31T19:27:42.626Z,96572.69
2023-03-31T19:30:19.729Z,96576.13
2023-03-31T19:32:53.557Z,96572.25
2023-03-31T19:35:27.246Z,96570.25
2023-03-31T19:38:00.313Z,96566.09
2023-03-31T19:40:33.372Z,96565.97
2023-03-31T19:43:06.918Z,96562.06
2023-03-31T19:45:41.237Z,96551.19
2023-03-31T19:48:14.569Z,96555.66
2023-03-31T19:50:51.358Z,96547.88
2023-03-31T19:53:25.083Z,96559.25
2023-03-31T19:56:00.467Z,96553.66
2023-03-31T19:58:35.818Z,96546.13
2023-03-31T20:01:17.495Z,96551.41
2023-03-31T20:03:53.742Z,96551.09
2023-03-31T20:06:29.584Z,96549.13
2023-03-31T20:09:06.204Z,96548.91
2023-03-31T20:11:39.978Z,96553.41
2023-03-31T20:14:14.997Z,96545.22
2023-03-31T20:16:50.895Z,96545.34
2023-03-31T20:19:23.852Z,96540.50
2023-03-31T20:21:57.861Z,96536.22
2023-03-31T20:24:31.056Z,96541.66
2023-03-31T20:27:04.003Z,96549.19
2023-03-31T20:29:37.054Z,96545.94
2023-03-31T20:32:11.335Z,96545.19
2023-03-31T20:34:44.335Z,96550.56
2023-03-31T20:37:17.365Z,96553.81
2023-03-31T20:39:51.169Z,96551.72
2023-03-31T20:42:24.399Z,96562.97
2023-03-31T20:44:57.574Z,96565.38
2023-03-31T20:47:34.712Z,96566.50
2023-03-31T20:50:08.782Z,96567.66
2023-03-31T20:52:42.974Z,96571.63
2023-03-31T20:55:16.819Z,96582.09
2023-03-31T20:57:49.748Z,96579.28
2023-03-31T21:00:23.047Z,96585.06
2023-03-31T21:02:57.348Z,96575.47
2023-03-31T21:05:30.665Z,96587.28
2023-03-31T21:08:03.813Z,96580.19
2023-03-31T21:10:42.263Z,96587.16
2023-03-31T21:13:17.919Z,96578.69
2023-03-31T21:15:54.348Z,96590.50
2023-03-31T21:18:30.594Z,96582.94
2023-03-31T21:21:06.115Z,96583.75
2023-03-31T21:23:39.471Z,96573.69
2023-03-31T21:26:15.570Z,96591.63
2023-03-31T21:28:50.768Z,96587.28
2023-03-31T21:31:26.131Z,96577.19
2023-03-31T21:34:02.360Z,96584.25
2023-03-31T21:36:35.428Z,96588.44
2023-03-31T21:39:09.641Z,96594.94
2023-03-31T21:41:43.108Z,96592.72
2023-03-31T21:44:16.398Z,96584.13
2023-03-31T21:46:49.649Z,96579.97
2023-03-31T21:49:23.991Z,96585.06
2023-03-31T21:51:56.953Z,96581.91
2023-03-31T21:54:29.907Z,96584.25
2023-03-31T21:57:02.870Z,96578.03
2023-03-31T21:59:36.218Z,96590.69
2023-03-31T22:02:09.231Z,96577.28
2023-03-31T22:04:43.600Z,96582.28
2023-03-31T22:07:16.567Z,96583.34
2023-03-31T22:09:49.546Z,96584.03
2023-03-31T22:12:22.536Z,96563.03
2023-03-31T22:14:56.835Z,96574.03
2023-03-31T22:17:30.127Z,96564.00
2023-03-31T22:20:05.068Z,96580.78
2023-03-31T22:22:39.496Z,96579.97
2023-03-31T22:25:12.444Z,96573.50
2023-03-31T22:27:45.424Z,96589.22
2023-03-31T22:30:18.571Z,96586.78
2023-03-31T22:32:51.907Z,96598.09
2023-03-31T22:35:26.469Z,96594.22
2023-03-31T22:37:59.496Z,96581.69
2023-03-31T22:40:32.571Z,96596.22
2023-03-31T22:43:05.964Z,96599.44
2023-03-31T22:45:39.548Z,96591.00
2023-03-31T22:48:13.812Z,96599.09
2023-03-31T22:50:48.125Z,96598.88
2023-03-31T22:53:21.143Z,96601.09
2023-03-31T22:55:54.735Z,96612.22
2023-03-31T22:58:27.882Z,96592.28
2023-03-31T23:01:01.760Z,96601.97
2023-03-31T23:03:34.967Z,96585.66
2023-03-31T23:06:10.767Z,96600.56
2023-03-31T23:08:45.326Z,96596.13
2023-03-31T23:11:18.916Z,96589.53
2023-03-31T23:13:52.806Z,96598.75
2023-03-31T23:16:27.379Z,96597.16
2023-03-31T23:19:01.280Z,96588.66
2023-03-31T23:21:36.514Z,96586.56
2023-03-31T23:24:10.876Z,96586.72
2023-03-31T23:26:43.895Z,96585.88
2023-03-31T23:29:16.928Z,96587.56
2023-03-31T23:31:49.919Z,96583.25
2023-03-31T23:34:22.965Z,96588.44
2023-03-31T23:36:57.302Z,96584.91
2023-03-31T23:39:30.467Z,96591.22
2023-03-31T23:42:03.396Z,96584.28
2023-03-31T23:44:37.632Z,96583.88
2023-03-31T23:47:11.643Z,96589.25
2023-03-31T23:49:44.640Z,96591.53
2023-03-31T23:52:18.987Z,96583.09
2023-03-31T23:54:52.114Z,96587.38
2023-03-31T23:57:25.293Z,96588.31
2023-03-31T23:59:58.319Z,96579.69
